Cherry Hill Township, New Jersey
Current Conditions -  °F | °C
As of 9:37 AM on Monday 26 Jan 2015 (Local Time) from KVAY Reporting Station
Light Snow Light Snow  
Wind Chill: 19°   Ceiling: 1300
Heat Index: 27°   Visibility: 1.2mi
Dew Point: 23°   Wind: 8mph
Humidity: 85%   Direction: 40°NE
Pressure: 29.91"   Gusts: NA
Location:  39.883°N, 74.9719°W
Report Text: KVAY 261437Z AUTO 04007KT 1 1/4SM -SN BR OVC013 M03/M05 A2991 RMK AO2 P0000 T10281050
Loading
Personal Weather Stations






























Interactive Weather Map New forecast layout! Learn more

10-Day Weather Forecast

Advertisements
Track Severe Weather on mobile